createdAt,value
2022-08-02T00:02:22.983Z,4.57
2022-08-02T00:04:49.524Z,4.33
2022-08-02T00:07:16.065Z,4.20
2022-08-02T00:09:42.817Z,4.13
2022-08-02T00:12:09.788Z,4.00
2022-08-02T00:14:36.823Z,4.33
2022-08-02T00:17:05.192Z,4.43
2022-08-02T00:19:31.622Z,3.77
2022-08-02T00:21:58.071Z,4.17
2022-08-02T00:24:30.969Z,4.03
2022-08-02T00:26:59.095Z,4.57
2022-08-02T00:29:25.550Z,4.00
2022-08-02T00:31:51.947Z,4.70
2022-08-02T00:34:29.101Z,4.20
2022-08-02T00:36:57.963Z,4.43
2022-08-02T00:39:33.558Z,4.73
2022-08-02T00:42:02.281Z,4.87
2022-08-02T00:44:28.769Z,4.40
2022-08-02T00:46:55.307Z,4.50
2022-08-02T00:49:21.854Z,4.27
2022-08-02T00:51:48.347Z,4.63
2022-08-02T00:54:14.802Z,4.43
2022-08-02T00:56:50.116Z,4.43
2022-08-02T00:59:18.475Z,4.80
2022-08-02T01:01:57.128Z,5.37
2022-08-02T01:04:31.507Z,4.90
2022-08-02T01:07:00.441Z,5.50
2022-08-02T01:09:27.394Z,4.97
2022-08-02T01:11:53.793Z,5.10
2022-08-02T01:14:21.654Z,5.57
2022-08-02T01:17:02.794Z,4.87
2022-08-02T01:19:35.182Z,5.10
2022-08-02T01:22:39.645Z,5.00
2022-08-02T01:25:18.246Z,4.67
2022-08-02T01:28:09.321Z,4.97
2022-08-02T01:30:37.742Z,5.33
2022-08-02T01:33:07.292Z,4.70
2022-08-02T01:35:47.165Z,5.10
2022-08-02T01:38:27.900Z,4.67
2022-08-02T01:40:56.532Z,4.37
2022-08-02T01:43:28.301Z,5.37
2022-08-02T01:45:56.442Z,5.40
2022-08-02T01:48:25.637Z,4.53
2022-08-02T01:50:53.793Z,5.00
2022-08-02T01:53:21.835Z,4.87
2022-08-02T01:55:57.682Z,5.10
2022-08-02T01:58:30.602Z,5.00
2022-08-02T02:00:59.464Z,4.57
2022-08-02T02:03:27.768Z,4.93
2022-08-02T02:05:57.735Z,4.70
2022-08-02T02:08:29.165Z,5.27
2022-08-02T02:10:57.299Z,5.67
2022-08-02T02:13:33.177Z,4.83
2022-08-02T02:16:04.743Z,5.60
2022-08-02T02:18:34.283Z,5.57
2022-08-02T02:21:00.774Z,5.30
2022-08-02T02:23:28.015Z,5.03
2022-08-02T02:26:03.928Z,6.03
2022-08-02T02:28:32.607Z,6.23
2022-08-02T02:31:05.127Z,5.40
2022-08-02T02:33:35.272Z,5.53
2022-08-02T02:36:03.459Z,5.40
2022-08-02T02:38:32.889Z,5.30
2022-08-02T02:41:02.908Z,5.30
2022-08-02T02:43:32.334Z,5.50
2022-08-02T02:45:59.738Z,5.83
2022-08-02T02:48:29.028Z,5.47
2022-08-02T02:50:56.140Z,5.50
2022-08-02T02:53:23.282Z,5.30
2022-08-02T02:56:01.980Z,5.37
2022-08-02T02:58:31.128Z,5.30
2022-08-02T03:00:57.702Z,5.77
2022-08-02T03:03:25.748Z,5.43
2022-08-02T03:05:52.268Z,5.80
2022-08-02T03:08:18.959Z,5.13
2022-08-02T03:10:45.873Z,6.13
2022-08-02T03:13:12.917Z,5.20
2022-08-02T03:15:40.110Z,5.47
2022-08-02T03:18:06.610Z,5.27
2022-08-02T03:20:33.189Z,5.97
2022-08-02T03:22:59.608Z,5.00
2022-08-02T03:25:26.210Z,5.47
2022-08-02T03:27:52.586Z,5.23
2022-08-02T03:30:18.994Z,5.20
2022-08-02T03:32:48.313Z,5.03
2022-08-02T03:35:22.866Z,5.33
2022-08-02T03:37:52.376Z,5.43
2022-08-02T03:40:19.146Z,5.70
2022-08-02T03:42:46.394Z,5.53
2022-08-02T03:45:13.528Z,4.93
2022-08-02T03:47:40.485Z,4.40
2022-08-02T03:50:08.590Z,5.57
2022-08-02T03:52:36.668Z,5.70
2022-08-02T03:55:03.477Z,5.23
2022-08-02T03:57:29.989Z,5.03
2022-08-02T03:59:56.648Z,5.40
2022-08-02T04:02:23.071Z,5.50
2022-08-02T04:04:49.472Z,5.43
2022-08-02T04:07:15.933Z,5.53
2022-08-02T04:10:02.478Z,4.97
2022-08-02T04:12:28.888Z,5.50
2022-08-02T04:14:55.375Z,5.27
2022-08-02T04:17:23.160Z,5.20
2022-08-02T04:20:02.048Z,5.40
2022-08-02T04:22:42.126Z,4.97
2022-08-02T04:25:15.571Z,5.53
2022-08-02T04:27:50.087Z,5.53
2022-08-02T04:30:32.147Z,5.50
2022-08-02T04:32:59.596Z,5.37
2022-08-02T04:35:26.738Z,5.33
2022-08-02T04:38:05.806Z,5.30
2022-08-02T04:40:37.356Z,5.10
2022-08-02T04:43:03.833Z,4.97
2022-08-02T04:45:31.396Z,5.30
2022-08-02T04:48:06.108Z,5.77
2022-08-02T04:50:33.510Z,5.47
2022-08-02T04:53:00.017Z,5.03
2022-08-02T04:55:26.537Z,5.43
2022-08-02T04:57:53.321Z,4.97
2022-08-02T05:00:19.972Z,5.07
2022-08-02T05:02:46.708Z,5.40
2022-08-02T05:05:13.133Z,4.90
2022-08-02T05:07:39.569Z,5.60
2022-08-02T05:10:06.452Z,4.80
2022-08-02T05:12:32.933Z,5.00
2022-08-02T05:14:59.344Z,5.33
2022-08-02T05:17:25.808Z,5.43
2022-08-02T05:19:52.228Z,5.57
2022-08-02T05:22:18.669Z,4.90
2022-08-02T05:24:45.088Z,5.07
2022-08-02T05:27:16.532Z,5.27
2022-08-02T05:29:51.222Z,5.03
2022-08-02T05:32:20.389Z,4.93
2022-08-02T05:34:50.321Z,4.43
2022-08-02T05:37:16.806Z,4.70
2022-08-02T05:39:55.789Z,3.47
2022-08-02T05:42:23.256Z,3.00
2022-08-02T05:44:49.755Z,3.10
2022-08-02T05:47:16.402Z,2.70
2022-08-02T05:49:42.851Z,2.90
2022-08-02T05:52:16.122Z,3.00
2022-08-02T05:55:05.073Z,2.67
2022-08-02T05:58:11.792Z,2.87
2022-08-02T06:00:41.272Z,2.80
2022-08-02T06:03:31.562Z,2.90
2022-08-02T06:06:14.253Z,2.87
2022-08-02T06:08:50.270Z,3.07
2022-08-02T06:11:21.453Z,3.30
2022-08-02T06:13:47.948Z,2.73
2022-08-02T06:16:14.978Z,3.03
2022-08-02T06:18:42.571Z,2.87
2022-08-02T06:22:31.641Z,2.90
2022-08-02T06:23:59.120Z,3.00
2022-08-02T06:26:27.665Z,2.97
2022-08-02T06:28:56.024Z,3.73
2022-08-02T06:31:22.953Z,2.87
2022-08-02T06:33:49.497Z,2.73
2022-08-02T06:36:34.496Z,2.90
2022-08-02T06:39:24.712Z,2.60
2022-08-02T06:41:54.990Z,3.30
2022-08-02T06:44:49.704Z,2.57
2022-08-02T06:47:12.426Z,2.40
2022-08-02T06:49:52.953Z,2.30
2022-08-02T06:52:30.684Z,2.40
2022-08-02T06:55:02.132Z,2.17
2022-08-02T06:57:29.389Z,2.33
2022-08-02T06:59:56.309Z,2.20
2022-08-02T07:02:22.943Z,2.27
2022-08-02T07:04:49.556Z,2.27
2022-08-02T07:07:16.072Z,2.50
2022-08-02T07:10:00.491Z,2.47
2022-08-02T07:12:29.487Z,2.20
2022-08-02T07:14:56.759Z,2.40
2022-08-02T07:17:23.143Z,2.33
2022-08-02T07:19:49.567Z,2.20
2022-08-02T07:22:16.461Z,2.17
2022-08-02T07:24:43.157Z,2.23
2022-08-02T07:27:11.654Z,2.13
2022-08-02T07:29:46.101Z,2.10
2022-08-02T07:32:18.062Z,2.13
2022-08-02T07:34:50.615Z,2.00
2022-08-02T07:37:35.358Z,2.03
2022-08-02T07:40:12.650Z,2.20
2022-08-02T07:42:40.340Z,2.03
2022-08-02T07:45:07.148Z,1.83
2022-08-02T07:47:39.601Z,2.00
2022-08-02T07:50:07.655Z,2.00
2022-08-02T07:52:34.811Z,1.95
2022-08-02T07:55:01.505Z,2.03
2022-08-02T07:57:28.122Z,1.83
2022-08-02T07:59:54.520Z,1.73
2022-08-02T08:02:20.970Z,1.70
2022-08-02T08:04:47.365Z,2.47
2022-08-02T08:07:13.806Z,2.17
2022-08-02T08:09:40.572Z,2.20
2022-08-02T08:12:08.866Z,2.40
2022-08-02T08:14:36.315Z,2.10
2022-08-02T08:17:03.367Z,2.50
2022-08-02T08:19:50.121Z,2.03
2022-08-02T08:22:16.308Z,2.05
2022-08-02T08:24:42.722Z,2.55
2022-08-02T08:27:09.273Z,2.33
2022-08-02T08:29:35.678Z,2.15
2022-08-02T08:32:02.121Z,2.65
2022-08-02T08:34:28.562Z,2.60
2022-08-02T08:36:54.967Z,2.33
2022-08-02T08:39:21.483Z,2.78
2022-08-02T08:41:47.974Z,3.10
2022-08-02T08:44:14.476Z,2.42
2022-08-02T08:46:43.534Z,2.85
2022-08-02T08:49:16.630Z,2.50
2022-08-02T08:51:44.209Z,3.00
2022-08-02T08:54:15.195Z,2.88
2022-08-02T08:56:43.086Z,2.78
2022-08-02T08:59:10.735Z,2.80
2022-08-02T09:01:49.820Z,3.00
2022-08-02T09:04:21.016Z,3.20
2022-08-02T09:06:51.857Z,3.00
2022-08-02T09:09:19.629Z,3.33
2022-08-02T09:11:46.179Z,2.60
2022-08-02T09:14:26.576Z,3.20
2022-08-02T09:16:53.017Z,3.43
2022-08-02T09:19:24.706Z,2.87
2022-08-02T09:22:12.486Z,4.30
2022-08-02T09:24:42.168Z,3.90
2022-08-02T09:27:17.311Z,4.50
2022-08-02T09:30:13.613Z,3.83
2022-08-02T09:32:46.264Z,3.83
2022-08-02T09:35:12.744Z,4.50
2022-08-02T09:37:39.149Z,4.40
2022-08-02T09:40:06.088Z,4.22
2022-08-02T09:42:32.681Z,4.93
2022-08-02T09:45:01.346Z,4.78
2022-08-02T09:47:31.092Z,4.95
2022-08-02T09:49:58.561Z,6.10
2022-08-02T09:52:36.857Z,6.03
2022-08-02T09:55:11.799Z,5.70
2022-08-02T09:57:38.402Z,6.28
2022-08-02T10:00:14.903Z,6.38
2022-08-02T10:03:21.537Z,6.82
2022-08-02T10:05:55.670Z,6.13
2022-08-02T10:08:22.482Z,5.90
2022-08-02T10:10:48.905Z,5.47
2022-08-02T10:13:19.984Z,5.63
2022-08-02T10:15:50.449Z,7.10
2022-08-02T10:18:37.006Z,8.35
2022-08-02T10:21:07.673Z,8.73
2022-08-02T10:23:36.353Z,8.10
2022-08-02T10:26:03.238Z,9.38
2022-08-02T10:28:29.796Z,10.70
2022-08-02T10:30:57.552Z,10.17
2022-08-02T10:33:25.913Z,9.87
2022-08-02T10:36:04.560Z,10.97
2022-08-02T10:38:35.202Z,25.13
2022-08-02T10:41:01.703Z,11.43
2022-08-02T10:43:37.032Z,9.27
2022-08-02T10:46:30.788Z,10.33
2022-08-02T10:52:03.481Z,9.60
2022-08-02T10:54:42.822Z,10.17
2022-08-02T10:57:31.253Z,10.27
2022-08-02T11:00:00.648Z,10.80
2022-08-02T11:02:47.697Z,11.07
2022-08-02T11:05:43.398Z,10.90
2022-08-02T11:08:21.539Z,12.17
2022-08-02T11:10:48.089Z,10.07
2022-08-02T11:13:18.666Z,11.63
2022-08-02T11:15:50.981Z,11.63
2022-08-02T11:18:18.149Z,11.47
2022-08-02T11:20:44.691Z,12.53
2022-08-02T11:23:44.188Z,11.77
2022-08-02T11:26:30.516Z,13.00
2022-08-02T11:28:58.501Z,10.67
2022-08-02T11:31:25.829Z,11.60
2022-08-02T11:33:53.497Z,12.60
2022-08-02T11:36:20.341Z,11.43
2022-08-02T11:38:49.614Z,12.40
2022-08-02T11:41:46.806Z,12.93
2022-08-02T11:44:07.251Z,12.73
2022-08-02T11:46:33.957Z,12.17
2022-08-02T11:49:18.416Z,12.47
2022-08-02T11:51:56.088Z,12.33
2022-08-02T11:54:35.245Z,11.93
2022-08-02T11:57:18.946Z,11.50
2022-08-02T11:59:48.992Z,12.33
2022-08-02T12:02:16.465Z,11.03
2022-08-02T12:04:44.156Z,11.47
2022-08-02T12:07:10.629Z,11.97
2022-08-02T12:09:41.117Z,12.23
2022-08-02T12:12:08.086Z,11.27
2022-08-02T12:14:42.173Z,12.13
2022-08-02T12:17:08.928Z,13.67
2022-08-02T12:19:37.523Z,12.67
2022-08-02T12:22:27.247Z,11.93
2022-08-02T12:25:14.952Z,13.10
2022-08-02T12:28:23.749Z,12.63
2022-08-02T12:31:00.275Z,12.80
2022-08-02T12:33:51.315Z,12.87
2022-08-02T12:36:25.187Z,12.50
2022-08-02T12:39:04.856Z,14.00
2022-08-02T12:41:32.762Z,13.90
2022-08-02T12:44:00.612Z,14.87
2022-08-02T12:46:27.141Z,13.93
2022-08-02T12:49:16.910Z,13.67
2022-08-02T12:51:55.659Z,12.67
2022-08-02T12:54:38.755Z,13.77
2022-08-02T12:57:12.966Z,13.97
2022-08-02T12:59:40.985Z,13.30
2022-08-02T13:02:10.282Z,13.77
2022-08-02T13:04:37.799Z,12.27
2022-08-02T13:07:05.161Z,11.90
2022-08-02T13:09:42.640Z,12.03
2022-08-02T13:12:10.575Z,10.90
2022-08-02T13:14:41.712Z,11.10
2022-08-02T13:17:12.172Z,10.73
2022-08-02T13:19:39.079Z,11.40
2022-08-02T13:22:05.879Z,11.70
2022-08-02T13:24:41.185Z,10.10
2022-08-02T13:27:20.772Z,9.90
2022-08-02T13:29:47.937Z,6.83
2022-08-02T13:32:14.785Z,5.20
2022-08-02T13:34:41.608Z,5.13
2022-08-02T13:37:08.084Z,4.23
2022-08-02T13:39:34.704Z,4.40
2022-08-02T13:42:01.223Z,4.10
2022-08-02T13:44:27.746Z,4.67
2022-08-02T13:46:54.210Z,5.57
2022-08-02T13:49:21.670Z,5.70
2022-08-02T13:51:48.714Z,5.70
2022-08-02T13:54:16.483Z,5.83
2022-08-02T13:56:43.188Z,5.13
2022-08-02T13:59:54.867Z,5.97
2022-08-02T14:01:56.760Z,5.13
2022-08-02T14:04:23.990Z,5.70
2022-08-02T14:06:50.525Z,5.87
2022-08-02T14:09:17.478Z,5.40
2022-08-02T14:11:45.241Z,5.50
2022-08-02T14:14:16.712Z,5.10
2022-08-02T14:16:45.371Z,4.90
2022-08-02T14:19:15.471Z,4.37
2022-08-02T14:21:48.073Z,3.87
2022-08-02T14:24:16.131Z,4.07
2022-08-02T14:26:43.389Z,4.30
2022-08-02T14:29:10.374Z,3.53
2022-08-02T14:31:41.637Z,3.87
2022-08-02T14:34:11.039Z,3.53
2022-08-02T14:36:38.231Z,4.47
2022-08-02T14:39:04.945Z,3.60
2022-08-02T14:41:31.381Z,3.73
2022-08-02T14:43:57.793Z,3.67
2022-08-02T14:46:24.297Z,3.90
2022-08-02T14:48:50.735Z,3.83
2022-08-02T14:51:17.247Z,4.50
2022-08-02T14:53:49.110Z,3.83
2022-08-02T14:56:16.333Z,3.53
2022-08-02T14:58:42.726Z,4.50
2022-08-02T15:01:09.365Z,3.93
2022-08-02T15:03:43.242Z,3.10
2022-08-02T15:06:10.349Z,3.30
2022-08-02T15:08:36.835Z,3.10
2022-08-02T15:11:03.518Z,3.90
2022-08-02T15:13:30.010Z,3.10
2022-08-02T15:15:56.730Z,3.07
2022-08-02T15:18:23.187Z,3.60
2022-08-02T15:20:57.340Z,2.93
2022-08-02T15:23:25.203Z,3.13
2022-08-02T15:26:06.167Z,3.47
2022-08-02T15:28:33.591Z,3.37
2022-08-02T15:31:00.001Z,2.77
2022-08-02T15:33:26.735Z,2.50
2022-08-02T15:35:53.111Z,2.37
2022-08-02T15:38:19.507Z,2.47
2022-08-02T15:40:45.924Z,3.63
2022-08-02T15:43:12.442Z,2.87
2022-08-02T15:45:40.277Z,2.80
2022-08-02T15:48:06.878Z,3.20
2022-08-02T15:50:33.286Z,2.70
2022-08-02T15:52:59.706Z,3.10
2022-08-02T15:55:26.146Z,3.20
2022-08-02T15:57:52.576Z,3.40
2022-08-02T16:00:19.277Z,3.50
2022-08-02T16:02:47.037Z,2.93
2022-08-02T16:05:15.153Z,2.80
2022-08-02T16:07:41.546Z,3.37
2022-08-02T16:10:08.321Z,3.80
2022-08-02T16:12:34.960Z,3.17
2022-08-02T16:15:01.387Z,2.93
2022-08-02T16:17:51.273Z,3.13
2022-08-02T16:20:14.429Z,3.03
2022-08-02T16:22:41.138Z,3.10
2022-08-02T16:25:08.061Z,2.90
2022-08-02T16:27:34.477Z,4.00
2022-08-02T16:30:20.901Z,3.30
2022-08-02T16:32:47.493Z,3.00
2022-08-02T16:35:13.937Z,2.87
2022-08-02T16:37:52.160Z,3.10
2022-08-02T16:40:19.351Z,2.80
2022-08-02T16:42:50.254Z,3.40
2022-08-02T16:45:19.938Z,3.10
2022-08-02T16:47:55.858Z,3.10
2022-08-02T16:50:27.237Z,2.90
2022-08-02T16:52:56.158Z,3.30
2022-08-02T16:55:22.565Z,3.20
2022-08-02T16:57:50.200Z,3.20
2022-08-02T17:00:17.001Z,3.10
2022-08-02T17:02:44.141Z,3.47
2022-08-02T17:05:14.702Z,3.67
2022-08-02T17:08:08.204Z,3.27
2022-08-02T17:10:28.617Z,3.10
2022-08-02T17:12:58.512Z,2.70
2022-08-02T17:16:17.180Z,2.67
2022-08-02T17:18:26.452Z,3.70
2022-08-02T17:20:54.149Z,2.67
2022-08-02T17:23:20.678Z,2.87
2022-08-02T17:25:52.288Z,3.00
2022-08-02T17:28:19.407Z,3.43
2022-08-02T17:30:45.821Z,3.67
2022-08-02T17:33:12.516Z,3.00
2022-08-02T17:35:43.310Z,3.00
2022-08-02T17:38:26.152Z,2.60
2022-08-02T17:40:54.848Z,3.13
2022-08-02T17:43:21.607Z,2.50
2022-08-02T17:45:59.750Z,2.90
2022-08-02T17:48:36.725Z,2.53
2022-08-02T17:51:03.852Z,3.13
2022-08-02T17:53:36.447Z,3.00
2022-08-02T17:56:02.993Z,2.90
2022-08-02T17:58:33.122Z,3.00
2022-08-02T18:01:00.177Z,2.40
2022-08-02T18:03:27.879Z,2.57
2022-08-02T18:05:55.482Z,2.30
2022-08-02T18:08:23.644Z,2.83
2022-08-02T18:10:51.857Z,2.80
2022-08-02T18:13:18.281Z,3.10
2022-08-02T18:15:45.462Z,2.00
2022-08-02T18:18:13.097Z,2.83
2022-08-02T18:20:40.929Z,2.50
2022-08-02T18:23:10.913Z,2.97
2022-08-02T18:25:45.730Z,3.20
2022-08-02T18:28:14.279Z,2.60
2022-08-02T18:30:40.856Z,3.67
2022-08-02T18:33:55.359Z,3.10
2022-08-02T18:35:55.269Z,3.00
2022-08-02T18:38:22.915Z,2.93
2022-08-02T18:40:51.181Z,3.87
2022-08-02T18:43:18.249Z,3.07
2022-08-02T18:46:05.323Z,3.30
2022-08-02T18:48:31.186Z,3.07
2022-08-02T18:50:57.868Z,3.13
2022-08-02T18:53:39.016Z,3.00
2022-08-02T18:56:08.612Z,3.07
2022-08-02T18:58:35.126Z,2.73
2022-08-02T19:01:05.140Z,3.13
2022-08-02T19:03:41.446Z,2.87
2022-08-02T19:06:16.306Z,2.70
2022-08-02T19:08:46.373Z,2.73
2022-08-02T19:11:35.114Z,3.07
2022-08-02T19:14:02.175Z,3.17
2022-08-02T19:16:37.002Z,3.20
2022-08-02T19:19:07.386Z,3.20
2022-08-02T19:22:15.840Z,2.90
2022-08-02T19:24:20.263Z,3.00
2022-08-02T19:26:51.106Z,3.60
2022-08-02T19:29:19.587Z,3.47
2022-08-02T19:32:06.338Z,2.80
2022-08-02T19:34:52.866Z,2.97
2022-08-02T19:37:19.282Z,3.17
2022-08-02T19:39:46.015Z,3.20
2022-08-02T19:42:12.557Z,2.93
2022-08-02T19:44:43.201Z,3.57
2022-08-02T19:47:11.925Z,3.43
2022-08-02T19:49:40.305Z,3.73
2022-08-02T19:52:20.476Z,3.80
2022-08-02T19:54:55.545Z,3.43
2022-08-02T19:57:25.017Z,4.10
2022-08-02T19:59:52.222Z,3.90
2022-08-02T20:02:19.209Z,4.87
2022-08-02T20:04:49.949Z,3.60
2022-08-02T20:07:48.222Z,3.97
2022-08-02T20:10:11.003Z,3.53
2022-08-02T20:12:39.164Z,3.30
2022-08-02T20:15:14.380Z,3.60
2022-08-02T20:17:43.652Z,3.73
2022-08-02T20:20:14.671Z,3.90
2022-08-02T20:22:41.109Z,3.80
2022-08-02T20:25:10.140Z,3.43
2022-08-02T20:27:51.016Z,3.40
2022-08-02T20:30:18.085Z,4.47
2022-08-02T20:35:30.901Z,4.67
2022-08-02T20:38:02.185Z,4.57
2022-08-02T20:40:29.342Z,4.87
2022-08-02T20:42:55.990Z,4.27
2022-08-02T20:45:23.604Z,4.37
2022-08-02T20:47:54.992Z,4.00
2022-08-02T20:50:31.704Z,4.23
2022-08-02T20:53:03.940Z,4.03
2022-08-02T20:55:31.657Z,5.00
2022-08-02T20:58:00.299Z,4.13
2022-08-02T21:00:28.311Z,4.60
2022-08-02T21:02:55.466Z,4.90
2022-08-02T21:05:26.696Z,4.80
2022-08-02T21:08:11.547Z,4.57
2022-08-02T21:10:41.734Z,4.40
2022-08-02T21:13:22.376Z,5.03
2022-08-02T21:15:50.869Z,4.80
2022-08-02T21:18:27.702Z,5.00
2022-08-02T21:21:03.925Z,4.70
2022-08-02T21:23:30.352Z,5.87
2022-08-02T21:26:03.002Z,4.80
2022-08-02T21:28:43.572Z,5.63
2022-08-02T21:31:18.357Z,4.70
2022-08-02T21:33:58.221Z,4.93
2022-08-02T21:38:58.109Z,5.27
2022-08-02T21:41:24.575Z,5.27
2022-08-02T21:44:06.985Z,5.50
2022-08-02T21:46:33.452Z,4.93
2022-08-02T21:49:01.333Z,5.10
2022-08-02T21:51:34.255Z,4.40
2022-08-02T21:54:17.720Z,5.60
2022-08-02T21:56:52.017Z,4.53
2022-08-02T21:59:25.281Z,4.23
2022-08-02T22:01:53.131Z,4.50
2022-08-02T22:04:20.726Z,4.70
2022-08-02T22:06:49.114Z,4.30
2022-08-02T22:09:44.108Z,4.17
2022-08-02T22:12:09.742Z,4.50
2022-08-02T22:14:37.198Z,4.73
2022-08-02T22:17:08.458Z,4.17
2022-08-02T22:19:35.910Z,5.07
2022-08-02T22:22:02.327Z,4.50
2022-08-02T22:24:30.073Z,4.13
2022-08-02T22:26:57.032Z,5.30
2022-08-02T22:29:23.581Z,4.23
2022-08-02T22:31:50.100Z,4.20
2022-08-02T22:34:36.989Z,5.20
2022-08-02T22:37:05.716Z,4.60
2022-08-02T22:39:32.426Z,4.10
2022-08-02T22:42:05.381Z,4.20
2022-08-02T22:47:19.669Z,4.83
2022-08-02T22:49:54.408Z,5.80
2022-08-02T22:52:22.789Z,4.67
2022-08-02T22:54:50.822Z,6.03
2022-08-02T22:57:17.755Z,5.10
2022-08-02T22:58:55.695Z,4.10
2022-08-02T22:59:09.787Z,5.30
2022-08-02T22:59:56.697Z,5.50
2022-08-02T23:02:23.100Z,5.00
2022-08-02T23:04:51.793Z,4.80
2022-08-02T23:07:18.496Z,4.53
2022-08-02T23:09:44.912Z,4.93
2022-08-02T23:12:11.399Z,4.50
2022-08-02T23:14:37.831Z,5.00
2022-08-02T23:17:04.281Z,4.33
2022-08-02T23:19:30.690Z,5.00
2022-08-02T23:22:02.313Z,5.60
2022-08-02T23:24:29.568Z,5.53
2022-08-02T23:26:56.038Z,5.13
2022-08-02T23:29:22.454Z,5.40
2022-08-02T23:31:48.890Z,5.20
2022-08-02T23:34:16.009Z,5.93
2022-08-02T23:36:42.448Z,5.07
2022-08-02T23:39:08.992Z,5.30
2022-08-02T23:41:35.425Z,5.20
2022-08-02T23:44:13.921Z,4.97
2022-08-02T23:46:45.728Z,5.47
2022-08-02T23:49:13.511Z,4.43
2022-08-02T23:51:40.006Z,5.70
2022-08-02T23:54:06.449Z,5.53
2022-08-02T23:56:33.076Z,4.40
2022-08-02T23:58:59.527Z,4.90
